createdAt,value
2023-12-26T00:01:13.345Z,0.20
2023-12-26T00:03:40.318Z,0.10
2023-12-26T00:06:07.790Z,0.10
2023-12-26T00:08:34.820Z,0.20
2023-12-26T00:11:02.084Z,0.10
2023-12-26T00:13:28.854Z,0.10
2023-12-26T00:15:55.660Z,0.10
2023-12-26T00:18:22.476Z,0.10
2023-12-26T00:20:49.495Z,0.13
2023-12-26T00:23:16.303Z,0.10
2023-12-26T00:25:45.464Z,0.13
2023-12-26T00:28:15.021Z,0.25
2023-12-26T00:30:41.901Z,0.30
2023-12-26T00:33:08.797Z,0.10
2023-12-26T00:35:35.868Z,0.15
2023-12-26T00:38:02.904Z,0.20
2023-12-26T00:40:29.878Z,0.20
2023-12-26T00:42:57.248Z,0.20
2023-12-26T00:45:24.182Z,0.22
2023-12-26T00:47:51.103Z,0.10
2023-12-26T00:50:18.056Z,0.25
2023-12-26T00:52:45.192Z,0.20
2023-12-26T00:55:11.987Z,0.30
2023-12-26T00:57:38.800Z,0.30
2023-12-26T01:00:07.310Z,0.20
2023-12-26T01:02:34.443Z,0.20
2023-12-26T01:05:01.389Z,0.30
2023-12-26T01:07:28.867Z,0.20
2023-12-26T01:09:56.116Z,0.20
2023-12-26T01:12:22.955Z,0.25
2023-12-26T01:14:49.698Z,0.20
2023-12-26T01:17:16.580Z,0.30
2023-12-26T01:19:43.461Z,0.40
2023-12-26T01:22:10.185Z,0.20
2023-12-26T01:24:37.003Z,0.20
2023-12-26T01:27:04.172Z,0.22
2023-12-26T01:29:31.122Z,0.30
2023-12-26T01:31:57.891Z,0.20
2023-12-26T01:34:25.058Z,0.30
2023-12-26T01:36:51.967Z,0.20
2023-12-26T01:39:19.091Z,0.20
2023-12-26T01:41:46.294Z,0.30
2023-12-26T01:44:13.949Z,0.28
2023-12-26T01:46:41.237Z,0.20
2023-12-26T01:49:09.385Z,0.20
2023-12-26T01:51:37.564Z,0.25
2023-12-26T01:54:04.471Z,0.30
2023-12-26T01:56:31.924Z,0.28
2023-12-26T01:58:58.953Z,0.30
2023-12-26T02:01:25.713Z,0.40
2023-12-26T02:03:55.796Z,0.30
2023-12-26T02:06:22.746Z,0.30
2023-12-26T02:08:50.587Z,0.30
2023-12-26T02:11:17.655Z,0.22
2023-12-26T02:13:44.445Z,0.32
2023-12-26T02:16:16.527Z,0.40
2023-12-26T02:18:44.184Z,0.30
2023-12-26T02:21:11.864Z,0.40
2023-12-26T02:23:41.262Z,0.30
2023-12-26T02:26:08.828Z,0.40
2023-12-26T02:28:37.353Z,0.30
2023-12-26T02:31:06.495Z,0.32
2023-12-26T02:33:35.364Z,0.43
2023-12-26T02:36:02.872Z,0.20
2023-12-26T02:38:29.622Z,0.20
2023-12-26T02:40:56.446Z,0.40
2023-12-26T02:43:23.924Z,0.50
2023-12-26T02:45:50.833Z,0.30
2023-12-26T02:48:18.281Z,0.50
2023-12-26T02:50:46.477Z,0.43
2023-12-26T02:53:13.255Z,0.45
2023-12-26T02:55:40.049Z,0.40
2023-12-26T02:58:06.932Z,0.50
2023-12-26T03:00:33.808Z,0.40
2023-12-26T03:03:00.843Z,0.40
2023-12-26T03:05:28.455Z,0.47
2023-12-26T03:07:55.243Z,0.40
2023-12-26T03:10:22.369Z,0.65
2023-12-26T03:12:49.138Z,0.50
2023-12-26T03:15:17.494Z,0.40
2023-12-26T03:17:44.572Z,0.40
2023-12-26T03:20:12.078Z,0.40
2023-12-26T03:22:42.230Z,0.40
2023-12-26T03:25:09.342Z,0.30
2023-12-26T03:27:36.233Z,0.50
2023-12-26T03:30:03.242Z,0.50
2023-12-26T03:32:30.049Z,0.50
2023-12-26T03:34:57.262Z,0.40
2023-12-26T03:37:24.151Z,0.50
2023-12-26T03:39:50.992Z,0.40
2023-12-26T03:42:20.200Z,0.40
2023-12-26T03:44:48.981Z,0.30
2023-12-26T03:47:15.977Z,0.30
2023-12-26T03:49:43.401Z,0.45
2023-12-26T03:52:10.730Z,0.40
2023-12-26T03:54:38.186Z,0.32
2023-12-26T03:57:05.296Z,0.40
2023-12-26T03:59:32.208Z,0.30
2023-12-26T04:01:58.935Z,0.40
2023-12-26T04:04:26.263Z,0.30
2023-12-26T04:06:53.256Z,0.40
2023-12-26T04:09:21.269Z,0.30
2023-12-26T04:11:48.380Z,0.30
2023-12-26T04:14:15.640Z,0.30
2023-12-26T04:16:43.668Z,0.30
2023-12-26T04:19:11.048Z,0.30
2023-12-26T04:21:38.130Z,0.32
2023-12-26T04:24:05.692Z,0.25
2023-12-26T04:26:32.482Z,0.30
2023-12-26T04:28:59.224Z,0.20
2023-12-26T04:31:27.014Z,0.20
2023-12-26T04:33:54.141Z,0.30
2023-12-26T04:36:21.349Z,0.30
2023-12-26T04:38:48.295Z,0.22
2023-12-26T04:41:15.081Z,0.25
2023-12-26T04:43:41.864Z,0.20
2023-12-26T04:46:08.665Z,0.20
2023-12-26T04:48:36.098Z,0.10
2023-12-26T04:51:03.502Z,0.20
2023-12-26T04:53:30.684Z,0.20
2023-12-26T04:55:57.556Z,0.20
2023-12-26T04:58:24.374Z,0.10
2023-12-26T05:00:51.121Z,0.10
2023-12-26T05:03:18.076Z,0.20
2023-12-26T05:05:45.327Z,0.20
2023-12-26T05:08:12.139Z,0.15
2023-12-26T05:10:38.978Z,0.10
2023-12-26T05:13:05.729Z,0.10
2023-12-26T05:15:32.747Z,0.10
2023-12-26T05:18:00.008Z,0.20
2023-12-26T05:20:31.186Z,0.20
2023-12-26T05:22:59.435Z,0.10
2023-12-26T05:25:27.754Z,0.10
2023-12-26T05:27:55.044Z,0.10
2023-12-26T05:30:21.878Z,0.10
2023-12-26T05:32:49.296Z,0.10
2023-12-26T05:35:18.366Z,0.00
2023-12-26T05:37:46.479Z,0.10
2023-12-26T05:40:13.454Z,0.08
2023-12-26T05:42:40.396Z,0.10
2023-12-26T05:45:07.536Z,0.00
2023-12-26T05:47:34.482Z,0.10
2023-12-26T05:50:01.804Z,0.00
2023-12-26T05:52:28.882Z,0.10
2023-12-26T05:54:56.507Z,0.00
2023-12-26T05:57:23.402Z,0.00
2023-12-26T05:59:50.784Z,0.10
2023-12-26T06:02:17.649Z,0.10
2023-12-26T06:04:44.413Z,0.05
2023-12-26T06:07:13.023Z,0.00
2023-12-26T06:09:40.162Z,0.10
2023-12-26T06:12:09.511Z,0.10
2023-12-26T06:14:36.437Z,0.10
2023-12-26T06:17:03.868Z,0.10
2023-12-26T06:19:30.962Z,0.10
2023-12-26T06:21:58.159Z,0.00
2023-12-26T06:24:25.608Z,0.10
2023-12-26T06:26:53.223Z,0.10
2023-12-26T06:29:20.169Z,0.00
2023-12-26T06:31:47.000Z,0.05
2023-12-26T06:34:13.903Z,0.10
2023-12-26T06:36:40.816Z,0.10
2023-12-26T06:39:07.785Z,0.10
2023-12-26T06:41:34.612Z,0.10
2023-12-26T06:44:01.516Z,0.20
2023-12-26T06:46:28.477Z,0.00
2023-12-26T06:48:55.730Z,0.10
2023-12-26T06:51:22.529Z,0.10
2023-12-26T06:53:49.644Z,0.10
2023-12-26T06:56:16.500Z,0.03
2023-12-26T06:58:43.283Z,0.20
2023-12-26T07:01:11.301Z,0.13
2023-12-26T07:03:38.206Z,0.10
2023-12-26T07:06:05.834Z,0.10
2023-12-26T07:08:32.687Z,0.10
2023-12-26T07:10:59.442Z,0.10
2023-12-26T07:13:26.255Z,0.10
2023-12-26T07:15:53.450Z,0.10
2023-12-26T07:18:20.447Z,0.00
2023-12-26T07:20:47.483Z,0.22
2023-12-26T07:23:14.335Z,0.20
2023-12-26T07:25:42.334Z,0.10
2023-12-26T07:28:09.277Z,0.10
2023-12-26T07:30:36.311Z,0.17
2023-12-26T07:33:03.403Z,0.20
2023-12-26T07:35:31.957Z,0.22
2023-12-26T07:37:58.684Z,0.10
2023-12-26T07:40:25.505Z,0.20
2023-12-26T07:42:52.627Z,0.10
2023-12-26T07:45:24.410Z,0.17
2023-12-26T07:47:51.658Z,0.13
2023-12-26T07:50:18.729Z,0.10
2023-12-26T07:52:45.974Z,0.20
2023-12-26T07:55:17.487Z,0.20
2023-12-26T07:57:45.405Z,0.20
2023-12-26T08:00:13.175Z,0.10
2023-12-26T08:02:43.304Z,0.10
2023-12-26T08:05:10.879Z,0.13
2023-12-26T08:07:37.766Z,0.10
2023-12-26T08:10:04.808Z,0.10
2023-12-26T08:12:31.664Z,0.20
2023-12-26T08:14:58.422Z,0.20
2023-12-26T08:17:25.448Z,0.10
2023-12-26T08:19:52.274Z,0.20
2023-12-26T08:22:19.113Z,0.10
2023-12-26T08:24:45.880Z,0.17
2023-12-26T08:27:12.793Z,0.10
2023-12-26T08:29:39.622Z,0.30
2023-12-26T08:32:07.574Z,0.20
2023-12-26T08:34:34.399Z,0.20
2023-12-26T08:37:01.236Z,0.10
2023-12-26T08:39:28.168Z,0.17
2023-12-26T08:41:55.005Z,0.10
2023-12-26T08:44:21.865Z,0.20
2023-12-26T08:46:51.618Z,0.22
2023-12-26T08:49:18.497Z,0.20
2023-12-26T08:51:45.311Z,0.10
2023-12-26T08:54:13.215Z,0.30
2023-12-26T08:56:43.167Z,0.20
2023-12-26T08:59:10.123Z,0.10
2023-12-26T09:01:37.150Z,0.20
2023-12-26T09:04:04.873Z,0.10
2023-12-26T09:06:32.286Z,0.17
2023-12-26T09:08:59.290Z,0.20
2023-12-26T09:11:26.129Z,0.20
2023-12-26T09:13:53.896Z,0.20
2023-12-26T09:16:20.747Z,0.13
2023-12-26T09:18:48.657Z,0.13
2023-12-26T09:21:15.772Z,0.30
2023-12-26T09:23:42.830Z,0.20
2023-12-26T09:26:09.663Z,0.20
2023-12-26T09:28:39.351Z,0.30
2023-12-26T09:31:06.052Z,0.20
2023-12-26T09:33:32.931Z,0.20
2023-12-26T09:35:59.797Z,0.20
2023-12-26T09:38:26.610Z,0.30
2023-12-26T09:40:53.535Z,0.20
2023-12-26T09:43:20.385Z,0.30
2023-12-26T09:45:47.250Z,0.20
2023-12-26T09:48:14.589Z,0.40
2023-12-26T09:50:41.637Z,0.30
2023-12-26T09:53:09.515Z,0.30
2023-12-26T09:55:36.795Z,0.20
2023-12-26T09:58:03.832Z,0.22
2023-12-26T10:00:31.254Z,0.17
2023-12-26T10:02:58.823Z,0.30
2023-12-26T10:05:27.549Z,0.20
2023-12-26T10:07:54.471Z,0.30
2023-12-26T10:10:21.840Z,0.32
2023-12-26T10:12:49.648Z,0.35
2023-12-26T10:15:17.571Z,0.20
2023-12-26T10:17:45.227Z,0.43
2023-12-26T10:20:16.435Z,0.30
2023-12-26T10:22:44.307Z,0.20
2023-12-26T10:25:14.172Z,0.20
2023-12-26T10:27:41.684Z,0.40
2023-12-26T10:30:09.223Z,0.20
2023-12-26T10:32:36.444Z,0.20
2023-12-26T10:35:15.458Z,0.25
2023-12-26T10:37:43.179Z,0.20
2023-12-26T10:40:10.917Z,0.30
2023-12-26T10:42:41.007Z,0.20
2023-12-26T10:45:09.995Z,0.15
2023-12-26T10:47:40.072Z,0.30
2023-12-26T10:50:10.222Z,0.32
2023-12-26T10:52:41.377Z,0.25
2023-12-26T10:55:09.337Z,0.20
2023-12-26T10:57:36.730Z,0.25
2023-12-26T11:00:50.855Z,0.20
2023-12-26T11:04:14.056Z,0.30
2023-12-26T11:07:55.873Z,0.32
2023-12-26T11:11:37.583Z,0.17
2023-12-26T11:15:19.754Z,0.40
2023-12-26T11:19:01.743Z,0.30
2023-12-26T11:22:43.924Z,0.30
2023-12-26T11:26:25.649Z,0.25
2023-12-26T11:30:07.790Z,0.20
2023-12-26T11:33:50.401Z,0.20
2023-12-26T11:37:32.299Z,0.30
2023-12-26T11:41:13.821Z,0.20
2023-12-26T11:44:55.863Z,0.30
2023-12-26T11:48:38.030Z,0.80
2023-12-26T11:52:19.728Z,0.60
2023-12-26T11:56:01.649Z,0.52
2023-12-26T11:59:43.525Z,0.35
2023-12-26T12:03:25.491Z,0.65
2023-12-26T12:07:07.339Z,0.40
2023-12-26T12:10:49.251Z,0.77
2023-12-26T12:14:30.923Z,0.50
2023-12-26T12:18:12.557Z,0.70
2023-12-26T12:21:54.474Z,0.50
2023-12-26T12:25:36.326Z,0.60
2023-12-26T12:29:18.299Z,0.50
2023-12-26T12:33:00.019Z,0.50
2023-12-26T12:36:42.071Z,0.68
2023-12-26T12:40:23.733Z,0.50
2023-12-26T12:44:14.961Z,0.60
2023-12-26T12:47:58.509Z,0.50
2023-12-26T12:51:40.675Z,0.60
2023-12-26T12:55:23.920Z,0.32
2023-12-26T12:59:07.781Z,0.45
2023-12-26T13:02:49.115Z,0.52
2023-12-26T13:06:31.422Z,0.52
2023-12-26T13:10:13.276Z,0.52
2023-12-26T13:13:54.967Z,0.95
2023-12-26T13:17:37.017Z,1.05
2023-12-26T13:21:18.925Z,1.10
2023-12-26T13:25:01.680Z,1.00
2023-12-26T13:28:44.058Z,0.93
2023-12-26T13:32:25.844Z,1.10
2023-12-26T13:36:07.885Z,0.80
2023-12-26T13:39:50.142Z,1.20
2023-12-26T13:43:35.442Z,0.93
2023-12-26T13:47:17.830Z,1.15
2023-12-26T13:50:59.570Z,0.90
2023-12-26T13:53:44.977Z,1.05
2023-12-26T13:56:49.623Z,1.05
2023-12-26T13:59:54.049Z,1.08
2023-12-26T14:02:20.679Z,0.70
2023-12-26T14:04:47.696Z,1.00
2023-12-26T14:07:56.420Z,1.02
2023-12-26T14:11:01.083Z,0.52
2023-12-26T14:13:27.852Z,0.60
2023-12-26T14:15:54.464Z,1.10
2023-12-26T14:18:58.838Z,0.90
2023-12-26T14:22:03.382Z,1.30
2023-12-26T14:25:08.065Z,0.85
2023-12-26T14:27:34.753Z,1.00
2023-12-26T14:30:01.517Z,1.92
2023-12-26T14:33:05.831Z,1.17
2023-12-26T14:36:10.549Z,1.02
2023-12-26T14:38:37.276Z,0.90
2023-12-26T14:41:03.937Z,1.30
2023-12-26T14:44:08.041Z,1.35
2023-12-26T14:47:12.106Z,1.10
2023-12-26T14:49:38.878Z,1.63
2023-12-26T14:52:43.539Z,1.50
2023-12-26T14:55:47.874Z,1.20
2023-12-26T14:58:14.617Z,1.50
2023-12-26T15:00:41.430Z,1.55
2023-12-26T15:03:08.512Z,1.50
2023-12-26T15:05:35.794Z,1.35
2023-12-26T15:08:04.207Z,1.55
2023-12-26T15:10:32.287Z,1.30
2023-12-26T15:13:01.266Z,1.30
2023-12-26T15:15:28.185Z,1.17
2023-12-26T15:17:55.318Z,1.38
2023-12-26T15:20:22.122Z,1.20
2023-12-26T15:22:48.950Z,1.38
2023-12-26T15:25:18.345Z,1.10
2023-12-26T15:27:45.274Z,1.02
2023-12-26T15:30:12.599Z,0.98
2023-12-26T15:32:39.529Z,1.30
2023-12-26T15:35:07.232Z,1.27
2023-12-26T15:37:34.621Z,1.00
2023-12-26T15:40:01.811Z,1.20
2023-12-26T15:42:28.767Z,1.35
2023-12-26T15:44:55.513Z,1.63
2023-12-26T15:47:23.607Z,1.40
2023-12-26T15:49:50.809Z,1.40
2023-12-26T15:52:18.754Z,1.65
2023-12-26T15:54:45.706Z,1.20
2023-12-26T15:57:12.522Z,1.10
2023-12-26T15:59:39.319Z,2.65
2023-12-26T16:02:06.152Z,1.10
2023-12-26T16:04:33.265Z,1.13
2023-12-26T16:07:00.205Z,0.88
2023-12-26T16:09:29.664Z,1.02
2023-12-26T16:11:57.692Z,1.13
2023-12-26T16:14:27.497Z,1.30
2023-12-26T16:16:54.569Z,0.65
2023-12-26T16:19:21.552Z,1.00
2023-12-26T16:21:48.401Z,1.00
2023-12-26T16:24:15.276Z,1.30
2023-12-26T16:26:44.628Z,1.35
2023-12-26T16:29:12.272Z,1.10
2023-12-26T16:31:39.539Z,1.42
2023-12-26T16:34:06.767Z,1.25
2023-12-26T16:36:33.985Z,1.08
2023-12-26T16:39:01.156Z,1.42
2023-12-26T16:41:28.275Z,1.45
2023-12-26T16:43:55.081Z,1.27
2023-12-26T16:46:22.818Z,1.10
2023-12-26T16:48:50.185Z,1.35
2023-12-26T16:51:17.190Z,1.60
2023-12-26T16:53:44.102Z,1.40
2023-12-26T16:56:11.466Z,1.38
2023-12-26T16:58:40.487Z,1.40
2023-12-26T17:01:08.315Z,1.33
2023-12-26T17:03:38.105Z,1.60
2023-12-26T17:06:05.158Z,1.58
2023-12-26T17:08:32.107Z,1.77
2023-12-26T17:11:00.506Z,1.40
2023-12-26T17:13:28.673Z,1.50
2023-12-26T17:15:55.840Z,1.30
2023-12-26T17:18:23.074Z,1.30
2023-12-26T17:20:49.956Z,1.42
2023-12-26T17:23:16.782Z,1.38
2023-12-26T17:25:43.517Z,1.35
2023-12-26T17:28:11.090Z,1.25
2023-12-26T17:30:38.264Z,1.45
2023-12-26T17:33:05.653Z,1.80
2023-12-26T17:35:32.899Z,2.00
2023-12-26T17:37:59.728Z,1.80
2023-12-26T17:40:26.581Z,1.77
2023-12-26T17:42:53.920Z,1.83
2023-12-26T17:45:20.883Z,1.35
2023-12-26T17:47:48.670Z,1.10
2023-12-26T17:50:15.863Z,1.10
2023-12-26T17:52:42.608Z,0.90
2023-12-26T17:55:09.446Z,0.90
2023-12-26T17:57:36.333Z,1.02
2023-12-26T18:00:07.217Z,1.38
2023-12-26T18:02:36.435Z,0.98
2023-12-26T18:05:03.466Z,1.40
2023-12-26T18:07:30.248Z,0.82
2023-12-26T18:09:56.973Z,0.95
2023-12-26T18:12:23.870Z,1.02
2023-12-26T18:14:50.806Z,1.30
2023-12-26T18:17:18.200Z,1.25
2023-12-26T18:19:46.099Z,1.30
2023-12-26T18:22:13.055Z,1.17
2023-12-26T18:24:39.870Z,1.23
2023-12-26T18:27:06.758Z,1.10
2023-12-26T18:29:33.915Z,1.50
2023-12-26T18:32:00.794Z,0.90
2023-12-26T18:34:28.165Z,1.13
2023-12-26T18:36:55.148Z,1.35
2023-12-26T18:39:22.069Z,1.13
2023-12-26T18:41:48.918Z,0.90
2023-12-26T18:44:15.810Z,1.20
2023-12-26T18:46:45.451Z,1.08
2023-12-26T18:49:12.823Z,1.20
2023-12-26T18:51:39.826Z,1.10
2023-12-26T18:54:06.823Z,0.90
2023-12-26T18:56:33.584Z,1.05
2023-12-26T18:59:00.445Z,1.33
2023-12-26T19:01:27.377Z,1.13
2023-12-26T19:03:54.908Z,1.38
2023-12-26T19:06:22.004Z,1.20
2023-12-26T19:08:49.129Z,0.90
2023-12-26T19:11:19.586Z,1.05
2023-12-26T19:13:46.488Z,1.13
2023-12-26T19:16:13.406Z,1.05
2023-12-26T19:18:40.364Z,1.10
2023-12-26T19:21:11.628Z,1.05
2023-12-26T19:23:38.566Z,1.40
2023-12-26T19:26:05.432Z,1.45
2023-12-26T19:28:32.266Z,1.38
2023-12-26T19:30:59.283Z,1.60
2023-12-26T19:33:26.458Z,1.65
2023-12-26T19:35:53.434Z,1.30
2023-12-26T19:38:21.261Z,1.17
2023-12-26T19:40:49.346Z,1.10
2023-12-26T19:43:16.263Z,1.00
2023-12-26T19:45:43.069Z,1.02
2023-12-26T19:48:10.571Z,0.90
2023-12-26T19:50:38.888Z,1.38
2023-12-26T19:53:05.710Z,0.90
2023-12-26T19:55:32.479Z,0.90
2023-12-26T19:57:59.516Z,0.93
2023-12-26T20:00:26.524Z,1.25
2023-12-26T20:02:53.355Z,0.93
2023-12-26T20:05:20.267Z,0.70
2023-12-26T20:07:47.057Z,1.00
2023-12-26T20:10:14.018Z,1.27
2023-12-26T20:12:40.919Z,1.10
2023-12-26T20:15:08.269Z,1.05
2023-12-26T20:17:35.614Z,1.08
2023-12-26T20:20:02.998Z,0.90
2023-12-26T20:22:29.834Z,1.30
2023-12-26T20:24:56.990Z,1.17
2023-12-26T20:27:23.891Z,1.00
2023-12-26T20:29:50.691Z,1.30
2023-12-26T20:32:17.477Z,1.00
2023-12-26T20:34:44.345Z,1.10
2023-12-26T20:37:11.093Z,1.00
2023-12-26T20:39:37.896Z,1.00
2023-12-26T20:42:05.622Z,1.00
2023-12-26T20:44:32.514Z,0.77
2023-12-26T20:46:59.168Z,1.42
2023-12-26T20:49:28.886Z,1.02
2023-12-26T20:51:57.932Z,1.50
2023-12-26T20:54:25.353Z,1.25
2023-12-26T20:56:52.693Z,0.98
2023-12-26T20:59:20.769Z,0.80
2023-12-26T21:01:48.757Z,1.13
2023-12-26T21:04:17.364Z,1.00
2023-12-26T21:06:47.443Z,1.13
2023-12-26T21:09:14.922Z,1.10
2023-12-26T21:11:42.270Z,1.20
2023-12-26T21:14:14.481Z,1.17
2023-12-26T21:16:42.065Z,1.00
2023-12-26T21:19:10.015Z,1.00
2023-12-26T21:21:37.437Z,1.40
2023-12-26T21:24:05.924Z,1.20
2023-12-26T21:26:32.703Z,0.85
2023-12-26T21:28:59.376Z,0.98
2023-12-26T21:31:27.586Z,1.15
2023-12-26T21:33:57.599Z,0.90
2023-12-26T21:36:27.078Z,0.88
2023-12-26T21:38:53.946Z,0.90
2023-12-26T21:41:21.139Z,1.13
2023-12-26T21:43:47.783Z,1.20
2023-12-26T21:46:16.339Z,1.30
2023-12-26T21:48:43.449Z,1.10
2023-12-26T21:51:11.785Z,1.08
2023-12-26T21:53:39.684Z,1.10
2023-12-26T21:56:07.907Z,1.20
2023-12-26T21:58:36.064Z,1.00
2023-12-26T22:01:04.656Z,1.10
2023-12-26T22:03:31.734Z,1.13
2023-12-26T22:05:58.636Z,1.00
2023-12-26T22:08:26.647Z,1.10
2023-12-26T22:10:54.839Z,1.10
2023-12-26T22:13:22.030Z,0.90
2023-12-26T22:15:49.566Z,1.20
2023-12-26T22:18:17.761Z,1.02
2023-12-26T22:20:44.962Z,0.98
2023-12-26T22:23:11.737Z,0.90
2023-12-26T22:25:38.433Z,0.98
2023-12-26T22:28:05.761Z,0.80
2023-12-26T22:30:33.596Z,0.90
2023-12-26T22:33:01.619Z,0.98
2023-12-26T22:35:28.872Z,1.00
2023-12-26T22:37:56.196Z,1.13
2023-12-26T22:40:23.819Z,1.02
2023-12-26T22:42:51.557Z,0.90
2023-12-26T22:45:18.897Z,0.93
2023-12-26T22:47:46.246Z,1.10
2023-12-26T22:50:13.557Z,1.17
2023-12-26T22:52:40.544Z,1.10
2023-12-26T22:55:08.064Z,1.02
2023-12-26T22:57:38.872Z,1.15
2023-12-26T23:00:11.077Z,0.98
2023-12-26T23:02:38.334Z,1.30
2023-12-26T23:05:07.375Z,1.55
2023-12-26T23:07:34.525Z,1.17
2023-12-26T23:10:01.327Z,1.15
2023-12-26T23:12:28.311Z,1.20
2023-12-26T23:14:55.223Z,1.30
2023-12-26T23:17:22.415Z,0.95
2023-12-26T23:19:49.409Z,1.35
2023-12-26T23:22:16.246Z,1.20
2023-12-26T23:24:43.077Z,1.30
2023-12-26T23:27:09.954Z,1.30
2023-12-26T23:29:36.627Z,1.45
2023-12-26T23:32:03.554Z,1.00
2023-12-26T23:34:46.679Z,1.20
2023-12-26T23:37:15.726Z,1.45
2023-12-26T23:39:44.036Z,1.48
2023-12-26T23:42:11.260Z,1.08
2023-12-26T23:44:38.129Z,0.90
2023-12-26T23:47:05.070Z,1.20
2023-12-26T23:49:31.898Z,1.48
2023-12-26T23:51:58.736Z,1.27
2023-12-26T23:54:25.567Z,1.00
2023-12-26T23:56:52.436Z,1.27
2023-12-26T23:59:19.277Z,1.20
